createdAt,value
2022-09-16T00:03:24.911Z,100005.28
2022-09-16T00:07:27.113Z,100010.47
2022-09-16T00:11:34.131Z,100007.91
2022-09-16T00:15:38.603Z,100001.03
2022-09-16T00:19:40.890Z,100001.00
2022-09-16T00:23:45.606Z,100003.56
2022-09-16T00:27:50.358Z,100007.03
2022-09-16T00:31:52.656Z,100011.34
2022-09-16T00:36:12.251Z,100004.44
2022-09-16T00:40:23.393Z,100004.44
2022-09-16T00:45:03.234Z,99997.56
2022-09-16T00:49:22.315Z,100002.72
2022-09-16T00:53:31.703Z,100009.63
2022-09-16T00:57:38.938Z,100001.03
2022-09-16T01:01:43.465Z,100005.41
2022-09-16T01:05:47.087Z,100004.56
2022-09-16T01:09:52.079Z,100001.09
2022-09-16T01:14:17.532Z,100007.97
2022-09-16T01:18:24.905Z,100010.56
2022-09-16T01:23:01.100Z,100000.19
2022-09-16T01:27:13.400Z,100002.78
2022-09-16T01:31:36.079Z,100003.63
2022-09-16T01:36:01.643Z,99994.13
2022-09-16T01:40:11.337Z,99995.03
2022-09-16T01:44:42.410Z,99995.00
2022-09-16T01:48:56.182Z,99997.59
2022-09-16T01:53:01.944Z,99971.75
2022-09-16T01:57:27.114Z,99948.44
2022-09-16T02:02:02.430Z,99927.72
2022-09-16T02:06:10.738Z,99942.38
2022-09-16T02:10:23.789Z,99972.50
2022-09-16T02:14:33.832Z,100003.53
2022-09-16T02:18:43.282Z,100001.78
2022-09-16T02:22:49.196Z,100012.09
2022-09-16T02:27:03.301Z,100012.03
2022-09-16T02:31:14.408Z,100012.03
2022-09-16T02:35:20.120Z,100012.00
2022-09-16T02:39:36.302Z,100011.16
2022-09-16T02:43:38.889Z,100012.97
2022-09-16T02:48:09.974Z,100014.69
2022-09-16T02:52:20.881Z,100006.03
2022-09-16T02:56:37.691Z,100017.09
2022-09-16T03:00:44.849Z,100013.56
2022-09-16T03:04:51.882Z,100007.47
2022-09-16T03:08:59.061Z,100010.88
2022-09-16T03:13:12.434Z,100002.34
2022-09-16T03:17:50.437Z,99997.25
2022-09-16T03:22:12.862Z,99996.44
2022-09-16T03:26:26.531Z,99991.34
2022-09-16T03:30:36.663Z,99979.31
2022-09-16T03:34:59.406Z,99983.66
2022-09-16T03:39:03.274Z,99982.78
2022-09-16T03:43:24.878Z,99989.72
2022-09-16T03:47:27.189Z,99977.69
2022-09-16T03:51:34.946Z,99975.09
2022-09-16T03:55:52.108Z,99976.84
2022-09-16T03:59:59.465Z,99984.59
2022-09-16T04:04:02.643Z,99979.41
2022-09-16T04:08:07.944Z,99973.41
2022-09-16T04:12:12.597Z,99978.56
2022-09-16T04:16:21.193Z,99975.13
2022-09-16T04:20:28.882Z,99966.50
2022-09-16T04:24:31.259Z,99966.50
2022-09-16T04:28:35.863Z,99974.25
2022-09-16T04:32:49.115Z,99979.41
2022-09-16T04:36:51.488Z,99978.50
2022-09-16T04:41:06.261Z,99971.59
2022-09-16T04:45:14.047Z,99973.31
2022-09-16T04:49:19.388Z,99971.59
2022-09-16T04:53:30.287Z,99973.31
2022-09-16T04:57:36.389Z,99970.72
2022-09-16T05:01:46.390Z,99967.28
2022-09-16T05:05:50.423Z,99972.44
2022-09-16T05:09:54.812Z,99972.44
2022-09-16T05:14:01.540Z,99975.00
2022-09-16T05:18:08.478Z,99979.28
2022-09-16T05:22:11.258Z,99976.66
2022-09-16T05:26:18.029Z,99980.09
2022-09-16T05:30:26.221Z,99977.47
2022-09-16T05:34:30.816Z,99983.50
2022-09-16T05:38:33.409Z,99985.16
2022-09-16T05:42:40.657Z,99979.84
2022-09-16T05:46:48.865Z,99990.97
2022-09-16T05:51:00.952Z,99994.34
2022-09-16T05:55:05.773Z,99994.34
2022-09-16T05:59:14.555Z,99990.94
2022-09-16T06:03:26.334Z,99991.88
2022-09-16T06:07:28.487Z,99992.81
2022-09-16T06:11:33.385Z,99997.16
2022-09-16T06:15:37.783Z,99992.88
2022-09-16T06:19:40.404Z,99995.53
2022-09-16T06:23:44.732Z,99994.78
2022-09-16T06:27:47.651Z,99995.72
2022-09-16T06:31:52.456Z,99985.44
2022-09-16T06:36:00.528Z,99995.81
2022-09-16T06:40:05.385Z,99993.22
2022-09-16T06:44:12.938Z,99992.38
2022-09-16T06:48:18.069Z,99987.22
2022-09-16T06:52:20.445Z,99981.19
2022-09-16T06:56:32.081Z,99988.97
2022-09-16T07:00:39.621Z,99977.75
2022-09-16T07:04:47.680Z,99983.00
2022-09-16T07:08:54.274Z,99970.06
2022-09-16T07:12:56.782Z,99978.66
2022-09-16T07:16:59.562Z,99985.56
2022-09-16T07:21:13.420Z,99984.66
2022-09-16T07:25:15.478Z,99991.63
2022-09-16T07:29:24.757Z,99989.00
2022-09-16T07:33:32.046Z,100008.94
2022-09-16T07:37:42.473Z,100002.81
2022-09-16T07:41:49.752Z,100005.34
2022-09-16T07:46:01.525Z,100014.78
2022-09-16T07:50:08.900Z,100013.13
2022-09-16T07:54:16.319Z,100008.00
2022-09-16T07:58:21.267Z,100007.25
2022-09-16T08:02:28.710Z,100008.16
2022-09-16T08:06:37.869Z,100007.31
2022-09-16T08:10:42.553Z,100005.59
2022-09-16T08:14:49.753Z,100008.19
2022-09-16T08:19:01.657Z,100021.97
2022-09-16T08:23:06.879Z,100031.41
2022-09-16T08:27:09.001Z,100027.91
2022-09-16T08:31:13.949Z,100034.78
2022-09-16T08:35:20.423Z,100033.88
2022-09-16T08:39:22.624Z,100031.22
2022-09-16T08:43:45.003Z,100031.25
2022-09-16T08:48:04.688Z,100035.50
2022-09-16T08:52:15.922Z,100042.41
2022-09-16T08:56:27.530Z,100032.13
2022-09-16T09:00:33.987Z,100033.13
2022-09-16T09:04:41.407Z,100026.28
2022-09-16T09:09:20.544Z,100037.56
2022-09-16T09:13:44.715Z,100035.91
2022-09-16T09:18:01.867Z,100038.50
2022-09-16T09:22:38.037Z,100037.66
2022-09-16T09:27:12.158Z,100041.97
2022-09-16T09:31:19.188Z,100032.47
2022-09-16T09:36:03.530Z,100028.97
2022-09-16T09:40:16.725Z,100014.34
2022-09-16T09:44:39.950Z,100018.66
2022-09-16T09:48:48.222Z,100021.22
2022-09-16T09:53:07.373Z,100020.25
2022-09-16T09:57:20.920Z,100021.91
2022-09-16T10:01:25.475Z,100017.59
2022-09-16T10:05:31.111Z,100012.34
2022-09-16T10:09:37.809Z,100024.50
2022-09-16T10:13:48.789Z,100018.47
2022-09-16T10:17:55.788Z,100023.59
2022-09-16T10:22:14.464Z,100026.25
2022-09-16T10:26:25.136Z,100028.88
2022-09-16T10:30:47.562Z,100021.16
2022-09-16T10:34:59.259Z,100019.44
2022-09-16T10:39:05.887Z,100016.81
2022-09-16T10:43:15.278Z,100011.59
2022-09-16T10:47:28.779Z,100010.72
2022-09-16T10:51:41.403Z,100006.31
2022-09-16T10:55:58.249Z,100003.56
2022-09-16T11:00:23.965Z,100002.59
2022-09-16T11:04:49.784Z,99990.28
2022-09-16T11:09:05.139Z,99994.44
2022-09-16T11:13:41.193Z,99989.41
2022-09-16T11:18:11.651Z,99985.97
2022-09-16T11:22:41.902Z,99984.91
2022-09-16T11:26:59.763Z,99990.41
2022-09-16T11:31:05.054Z,99981.91
2022-09-16T11:35:39.702Z,99984.47
2022-09-16T11:40:06.865Z,99982.00
2022-09-16T11:44:27.701Z,99980.28
2022-09-16T11:49:02.050Z,99985.63
2022-09-16T11:53:20.421Z,99986.50
2022-09-16T11:57:31.277Z,99969.94
2022-09-16T12:01:42.944Z,99968.72
2022-09-16T12:05:57.150Z,99959.66
2022-09-16T12:10:22.923Z,99943.06
2022-09-16T12:14:42.358Z,99954.44
2022-09-16T12:19:00.147Z,99951.94
2022-09-16T12:23:33.833Z,99972.13
2022-09-16T12:27:38.977Z,99975.13
2022-09-16T12:31:58.908Z,99984.06
2022-09-16T12:36:08.914Z,99976.22
2022-09-16T12:40:27.871Z,99952.66
2022-09-16T12:44:39.115Z,99950.84
2022-09-16T12:48:59.073Z,99950.06
2022-09-16T12:53:21.438Z,99951.91
2022-09-16T12:57:54.260Z,99954.63
2022-09-16T13:02:03.412Z,99956.38
2022-09-16T13:06:28.230Z,99935.53
2022-09-16T13:10:55.855Z,99937.81
2022-09-16T13:15:04.387Z,99923.41
2022-09-16T13:19:35.527Z,99918.47
2022-09-16T13:23:43.778Z,99910.47
2022-09-16T13:28:06.089Z,99919.34
2022-09-16T13:32:31.125Z,99912.66
2022-09-16T13:36:39.949Z,99923.09
2022-09-16T13:40:54.335Z,99916.44
2022-09-16T13:45:01.719Z,99922.69
2022-09-16T13:49:13.305Z,99922.75
2022-09-16T13:53:29.834Z,99931.47
2022-09-16T13:57:59.676Z,99939.66
2022-09-16T14:02:38.813Z,99939.75
2022-09-16T14:06:43.845Z,99941.63
2022-09-16T14:11:04.798Z,99940.00
2022-09-16T14:15:12.829Z,99943.44
2022-09-16T14:19:23.844Z,99945.16
2022-09-16T14:23:32.360Z,99955.56
2022-09-16T14:27:40.779Z,99950.41
2022-09-16T14:31:48.520Z,99950.41
2022-09-16T14:35:53.030Z,99947.81
2022-09-16T14:40:02.738Z,99946.97
2022-09-16T14:44:23.006Z,99953.03
2022-09-16T14:48:31.846Z,99962.47
2022-09-16T14:52:36.783Z,99957.28
2022-09-16T14:56:39.251Z,99959.81
2022-09-16T15:00:59.304Z,99966.66
2022-09-16T15:05:28.887Z,99964.78
2022-09-16T15:09:44.316Z,99976.72
2022-09-16T15:13:55.103Z,99979.78
2022-09-16T15:18:13.729Z,99983.88
2022-09-16T15:22:16.270Z,99990.13
2022-09-16T15:26:41.493Z,99988.59
2022-09-16T15:30:52.846Z,99984.44
2022-09-16T15:35:17.107Z,99993.06
2022-09-16T15:39:29.668Z,99989.72
2022-09-16T15:43:42.939Z,99991.47
2022-09-16T15:48:16.276Z,99988.84
2022-09-16T15:52:22.238Z,100007.78
2022-09-16T15:56:44.420Z,100006.88
2022-09-16T16:01:09.113Z,100002.56
2022-09-16T16:05:35.525Z,100004.13
2022-09-16T16:09:44.268Z,100012.56
2022-09-16T16:13:50.105Z,99998.75
2022-09-16T16:17:58.516Z,100004.03
2022-09-16T16:22:01.189Z,100010.97
2022-09-16T16:26:22.013Z,100006.72
2022-09-16T16:30:33.048Z,100014.50
2022-09-16T16:34:43.080Z,100019.66
2022-09-16T16:38:48.464Z,100016.19
2022-09-16T16:43:02.513Z,100031.69
2022-09-16T16:47:08.885Z,100034.91
2022-09-16T16:51:12.587Z,100038.97
2022-09-16T16:55:20.084Z,100037.94
2022-09-16T16:59:23.864Z,100023.28
2022-09-16T17:03:30.920Z,100032.78
2022-09-16T17:07:41.660Z,100032.00
2022-09-16T17:12:01.844Z,100033.66
2022-09-16T17:16:08.373Z,100051.69
2022-09-16T17:20:16.941Z,100058.56
2022-09-16T17:24:25.336Z,100077.25
2022-09-16T17:28:29.846Z,100084.41
2022-09-16T17:32:36.202Z,100084.56
2022-09-16T17:36:44.473Z,100071.63
2022-09-16T17:40:53.914Z,100071.59
2022-09-16T17:49:32.383Z,100078.38
2022-09-16T17:53:40.133Z,100072.38
2022-09-16T17:57:44.762Z,100074.91
2022-09-16T18:01:54.414Z,100075.72
2022-09-16T18:06:09.801Z,100080.06
2022-09-16T18:10:15.151Z,100074.94
2022-09-16T18:14:23.306Z,100087.78
2022-09-16T18:18:28.934Z,100092.84
2022-09-16T18:22:34.169Z,100090.41
2022-09-16T18:26:47.617Z,100098.31
2022-09-16T18:31:24.672Z,100105.19
2022-09-16T18:35:33.031Z,100116.25
2022-09-16T18:39:40.064Z,100104.16
2022-09-16T18:43:51.883Z,100107.47
2022-09-16T18:48:02.660Z,100108.28
2022-09-16T18:52:12.369Z,100116.78
2022-09-16T18:56:21.042Z,100119.06
2022-09-16T19:00:28.509Z,100128.34
2022-09-16T19:04:45.746Z,100124.84
2022-09-16T19:08:52.390Z,100127.22
2022-09-16T19:12:54.636Z,100129.66
2022-09-16T19:17:02.685Z,100127.94
2022-09-16T19:21:14.415Z,100127.94
2022-09-16T19:25:16.731Z,100132.34
2022-09-16T19:29:22.395Z,100129.75
2022-09-16T19:33:26.888Z,100131.44
2022-09-16T19:37:33.462Z,100133.94
2022-09-16T19:41:39.371Z,100136.47
2022-09-16T19:45:41.670Z,100143.44
2022-09-16T19:49:51.123Z,100151.31
2022-09-16T19:54:00.313Z,100147.84
2022-09-16T19:58:04.984Z,100140.31
2022-09-16T20:02:11.410Z,100148.09
2022-09-16T20:06:24.484Z,100157.56
2022-09-16T20:10:27.844Z,100149.91
2022-09-16T20:14:35.238Z,100151.72
2022-09-16T20:18:39.719Z,100157.03
2022-09-16T20:22:44.917Z,100158.81
2022-09-16T20:26:57.354Z,100156.81
2022-09-16T20:31:01.828Z,100169.41
2022-09-16T20:35:09.925Z,100175.31
2022-09-16T20:39:17.665Z,100178.00
2022-09-16T20:43:19.742Z,100181.41
2022-09-16T20:47:30.156Z,100194.31
2022-09-16T20:51:33.553Z,100199.50
2022-09-16T20:55:35.571Z,100195.09
2022-09-16T20:59:40.256Z,100199.22
2022-09-16T21:03:54.217Z,100202.56
2022-09-16T21:08:05.215Z,100208.50
2022-09-16T21:12:07.801Z,100203.22
2022-09-16T21:16:12.444Z,100214.25
2022-09-16T21:20:14.801Z,100214.19
2022-09-16T21:24:21.734Z,100217.56
2022-09-16T21:28:25.481Z,100217.50
2022-09-16T21:32:30.221Z,100221.84
2022-09-16T21:36:32.198Z,100223.38
2022-09-16T21:40:37.696Z,100222.28
2022-09-16T21:44:43.801Z,100222.81
2022-09-16T21:48:57.738Z,100221.66
2022-09-16T21:53:02.672Z,100214.66
2022-09-16T21:57:07.877Z,100220.41
2022-09-16T22:01:18.228Z,100220.34
2022-09-16T22:05:20.703Z,100219.53
2022-09-16T22:09:25.172Z,100215.94
2022-09-16T22:13:33.538Z,100232.13
2022-09-16T22:17:43.805Z,100236.50
2022-09-16T22:21:50.355Z,100230.69
2022-09-16T22:25:52.708Z,100231.59
2022-09-16T22:29:59.928Z,100268.31
2022-09-16T22:34:02.410Z,100239.00
2022-09-16T22:38:04.732Z,100229.38
2022-09-16T22:42:10.070Z,100225.78
2022-09-16T22:46:18.783Z,100229.91
2022-09-16T22:50:23.331Z,100235.81
2022-09-16T22:54:25.568Z,100231.47
2022-09-16T22:58:28.847Z,100242.38
2022-09-16T23:02:33.755Z,100229.22
2022-09-16T23:06:39.278Z,100236.00
2022-09-16T23:10:45.638Z,100234.03
2022-09-16T23:14:53.246Z,100240.91
2022-09-16T23:18:57.650Z,100246.91
2022-09-16T23:23:06.912Z,100232.72
2022-09-16T23:27:10.882Z,100241.59
2022-09-16T23:31:21.165Z,100247.81
2022-09-16T23:35:26.291Z,100242.78
2022-09-16T23:39:32.941Z,100240.31
2022-09-16T23:43:38.997Z,100234.81
2022-09-16T23:47:41.226Z,100235.28
2022-09-16T23:51:44.917Z,100237.72
2022-09-16T23:55:50.282Z,100242.78
